Time;durP1;ratioP1;P1;durP2;ratioP2;P2;SDS_P1;SDS_P2;PMS_P1;PMS_P2;Temp;Humidity;BMP_temperature;BMP_pressure;BME280_temperature;BME280_humidity;BME280_pressure;Samples;Min_cycle;Max_cycle;Signal;HPM_P1;HPM_P2
2021/10/15 00:02:02;;;;;;;0.30;0.30;;;;;;;;;;4957287;29;20031;-72
2021/10/15 00:04:27;;;;;;;0.43;0.10;;;;;;;;;;4956729;29;20024;-72
2021/10/15 00:06:52;;;;;;;0.25;0.10;;;;;;;;;;4970666;28;20163;-71
2021/10/15 00:09:47;;;;;;;0.52;0.17;;;;;;;;;;5037038;28;20037;-72
2021/10/15 00:12:13;;;;;;;0.43;0.15;;;;;;;;;;4956848;29;20031;-71
2021/10/15 00:14:40;;;;;;;0.40;0.10;;;;;;;;;;4957523;29;20106;-73
2021/10/15 00:17:14;;;;;;;1.08;0.15;;;;;;;;;;4957039;29;20035;-72
2021/10/15 00:19:39;;;;;;;0.20;0.10;;;;;;;;;;4956983;29;20015;-71
2021/10/15 00:22:20;;;;;;;0.30;0.10;;;;;;;;;;4956812;29;20107;-70
2021/10/15 00:25:18;;;;;;;0.32;0.25;;;;;;;;;;4956856;29;20512;-71
2021/10/15 00:27:58;;;;;;;0.17;0.10;;;;;;;;;;4862369;29;20502;-71
2021/10/15 00:30:32;;;;;;;0.32;0.10;;;;;;;;;;4846878;29;20125;-72
2021/10/15 00:32:58;;;;;;;0.00;0.00;;;;;;;;;;4862701;29;20080;-72
2021/10/15 00:35:32;;;;;;;1.35;0.20;;;;;;;;;;4862371;29;20497;-71
2021/10/15 00:37:58;;;;;;;0.10;0.00;;;;;;;;;;4862450;29;20425;-73
2021/10/15 00:40:25;;;;;;;0.22;0.20;;;;;;;;;;4862102;29;20036;-71
2021/10/15 00:42:51;;;;;;;0.47;0.20;;;;;;;;;;4862303;29;20443;-71
2021/10/15 00:45:17;;;;;;;0.20;0.20;;;;;;;;;;4862617;29;20041;-72
2021/10/15 00:47:44;;;;;;;0.25;0.10;;;;;;;;;;4875089;29;20372;-72
2021/10/15 00:50:10;;;;;;;0.40;0.20;;;;;;;;;;4956276;29;20466;-70
2021/10/15 00:52:37;;;;;;;0.38;0.10;;;;;;;;;;4956390;29;20047;-72
2021/10/15 00:55:04;;;;;;;0.25;0.10;;;;;;;;;;4955281;28;20506;-72
2021/10/15 00:57:29;;;;;;;0.65;0.10;;;;;;;;;;4956201;29;20082;-71
2021/10/15 00:59:56;;;;;;;0.98;0.20;;;;;;;;;;4956379;29;20506;-72
2021/10/15 01:02:51;;;;;;;0.93;0.20;;;;;;;;;;4940327;29;20371;-72
2021/10/15 01:05:16;;;;;;;0.35;0.10;;;;;;;;;;4952956;29;20040;-72
2021/10/15 01:07:42;;;;;;;0.33;0.00;;;;;;;;;;4921057;29;20034;-72
2021/10/15 01:10:18;;;;;;;1.15;0.10;;;;;;;;;;4937061;29;20746;-72
2021/10/15 01:12:43;;;;;;;0.22;0.10;;;;;;;;;;4936853;29;20471;-71
2021/10/15 01:15:17;;;;;;;1.08;0.45;;;;;;;;;;4936820;29;20123;-72
2021/10/15 01:17:51;;;;;;;0.10;0.10;;;;;;;;;;4936883;29;20028;-73
2021/10/15 01:20:18;;;;;;;1.08;0.30;;;;;;;;;;4936366;29;20028;-71
2021/10/15 01:22:45;;;;;;;0.10;0.10;;;;;;;;;;4936731;29;20119;-73
2021/10/15 01:25:12;;;;;;;0.52;0.20;;;;;;;;;;4936655;29;20127;-71
2021/10/15 01:27:37;;;;;;;0.15;0.10;;;;;;;;;;4936415;29;20059;-71
2021/10/15 01:30:11;;;;;;;0.95;0.10;;;;;;;;;;4936663;29;20024;-72
2021/10/15 01:32:43;;;;;;;0.28;0.10;;;;;;;;;;4936501;29;20019;-71
2021/10/15 01:35:42;;;;;;;0.38;0.10;;;;;;;;;;4936273;29;20111;-72
2021/10/15 01:38:08;;;;;;;0.77;0.22;;;;;;;;;;4879899;29;20488;-72
2021/10/15 01:40:36;;;;;;;0.43;0.15;;;;;;;;;;4883388;29;20072;-71
2021/10/15 01:43:02;;;;;;;0.00;0.00;;;;;;;;;;4955487;29;20030;-73
2021/10/15 01:45:33;;;;;;;0.80;0.17;;;;;;;;;;4955453;29;20020;-72
2021/10/15 01:47:59;;;;;;;0.25;0.20;;;;;;;;;;4955404;29;20514;-71
2021/10/15 01:50:36;;;;;;;0.15;0.10;;;;;;;;;;4955419;29;20027;-74
2021/10/15 01:53:04;;;;;;;0.20;0.13;;;;;;;;;;4955301;29;20151;-73
2021/10/15 01:55:31;;;;;;;0.10;0.10;;;;;;;;;;4955267;29;20582;-70
2021/10/15 01:58:09;;;;;;;0.25;0.10;;;;;;;;;;4955197;29;20351;-74
2021/10/15 02:00:35;;;;;;;0.00;0.00;;;;;;;;;;4996898;23;20053;-71
2021/10/15 02:03:00;;;;;;;0.15;0.13;;;;;;;;;;5035199;28;20017;-70
2021/10/15 02:05:26;;;;;;;0.10;0.10;;;;;;;;;;5033748;28;20586;-73
2021/10/15 02:07:54;;;;;;;0.20;0.20;;;;;;;;;;5033885;28;20021;-72
2021/10/15 02:10:21;;;;;;;0.28;0.00;;;;;;;;;;5034839;28;20482;-70
2021/10/15 02:12:56;;;;;;;0.20;0.10;;;;;;;;;;5034847;28;20024;-72
2021/10/15 02:15:24;;;;;;;0.20;0.00;;;;;;;;;;5035040;28;20025;-73
2021/10/15 02:17:49;;;;;;;0.30;0.10;;;;;;;;;;5033661;28;20033;-71
2021/10/15 02:20:16;;;;;;;0.30;0.10;;;;;;;;;;5034842;28;20104;-73
2021/10/15 02:22:45;;;;;;;0.10;0.00;;;;;;;;;;5034877;28;20116;-74
2021/10/15 02:25:12;;;;;;;0.17;0.00;;;;;;;;;;5033671;28;20468;-72
2021/10/15 02:28:09;;;;;;;0.20;0.08;;;;;;;;;;5033443;28;20033;-71
2021/10/15 02:30:37;;;;;;;1.63;0.08;;;;;;;;;;4973671;28;20087;-72
2021/10/15 02:33:04;;;;;;;0.35;0.10;;;;;;;;;;4973775;28;20062;-71
2021/10/15 02:35:31;;;;;;;0.17;0.00;;;;;;;;;;4973936;28;20074;-74
2021/10/15 02:38:00;;;;;;;0.15;0.10;;;;;;;;;;4973765;28;20022;-73
2021/10/15 02:40:28;;;;;;;0.15;0.08;;;;;;;;;;4973353;28;20069;-70
2021/10/15 02:42:55;;;;;;;0.50;0.10;;;;;;;;;;4973643;28;20508;-73
2021/10/15 02:45:29;;;;;;;0.20;0.10;;;;;;;;;;4957700;28;20474;-73
2021/10/15 02:47:54;;;;;;;0.80;0.40;;;;;;;;;;4973562;28;20031;-71
2021/10/15 02:50:32;;;;;;;1.40;0.10;;;;;;;;;;4973309;28;20536;-72
2021/10/15 02:52:59;;;;;;;0.10;0.05;;;;;;;;;;4973495;28;20731;-72
2021/10/15 02:55:24;;;;;;;0.10;0.10;;;;;;;;;;4973490;28;20066;-71
2021/10/15 02:58:03;;;;;;;0.10;0.10;;;;;;;;;;4973431;28;20027;-72
2021/10/15 03:00:29;;;;;;;0.20;0.00;;;;;;;;;;4949015;29;20035;-72
2021/10/15 03:02:55;;;;;;;0.10;0.00;;;;;;;;;;4954198;29;20035;-72
2021/10/15 03:05:21;;;;;;;0.20;0.10;;;;;;;;;;4953947;29;20467;-73
2021/10/15 03:07:47;;;;;;;0.43;0.22;;;;;;;;;;4988362;28;20482;-74
2021/10/15 03:10:15;;;;;;;0.30;0.10;;;;;;;;;;4993467;28;20117;-71
2021/10/15 03:12:41;;;;;;;0.22;0.08;;;;;;;;;;4994602;28;20480;-73
2021/10/15 03:15:08;;;;;;;0.32;0.10;;;;;;;;;;4994862;28;20473;-73
2021/10/15 03:17:34;;;;;;;0.35;0.20;;;;;;;;;;4994037;28;20101;-72
2021/10/15 03:20:01;;;;;;;0.68;0.50;;;;;;;;;;4994799;28;20034;-73
2021/10/15 03:22:57;;;;;;;0.00;0.00;;;;;;;;;;4994595;28;20101;-73
2021/10/15 03:25:39;;;;;;;0.45;0.13;;;;;;;;;;4973187;28;20035;-73
2021/10/15 03:28:14;;;;;;;0.90;0.10;;;;;;;;;;4973039;28;20037;-73
2021/10/15 03:31:04;;;;;;;0.20;0.10;;;;;;;;;;4973164;28;20110;-72
2021/10/15 03:33:30;;;;;;;0.93;0.10;;;;;;;;;;4956792;28;20041;-73
2021/10/15 03:35:56;;;;;;;0.40;0.10;;;;;;;;;;4973282;28;20445;-72
2021/10/15 03:38:23;;;;;;;0.08;0.00;;;;;;;;;;4973101;28;20025;-74
2021/10/15 03:40:51;;;;;;;0.30;0.10;;;;;;;;;;4972948;28;20023;-74
2021/10/15 03:43:17;;;;;;;1.15;0.20;;;;;;;;;;4972973;28;20046;-72
2021/10/15 03:45:43;;;;;;;0.60;0.13;;;;;;;;;;4972955;28;20110;-73
2021/10/15 03:48:09;;;;;;;0.10;0.00;;;;;;;;;;4956906;28;20494;-74
2021/10/15 03:50:46;;;;;;;0.03;0.00;;;;;;;;;;4956747;28;20144;-73
2021/10/15 03:53:13;;;;;;;1.23;0.10;;;;;;;;;;4972759;28;20019;-71
2021/10/15 03:55:39;;;;;;;1.67;0.10;;;;;;;;;;4972878;28;20417;-73
2021/10/15 03:58:05;;;;;;;0.28;0.00;;;;;;;;;;4972979;28;20130;-72
2021/10/15 04:00:31;;;;;;;0.10;0.10;;;;;;;;;;4972785;28;20019;-70
2021/10/15 04:02:56;;;;;;;0.10;0.10;;;;;;;;;;4994043;28;20500;-74
2021/10/15 04:05:35;;;;;;;0.20;0.10;;;;;;;;;;4994170;28;20252;-73
2021/10/15 04:08:01;;;;;;;0.10;0.10;;;;;;;;;;4994376;28;20041;-72
2021/10/15 04:10:52;;;;;;;0.20;0.10;;;;;;;;;;4994132;28;20396;-75
2021/10/15 04:13:20;;;;;;;0.45;0.10;;;;;;;;;;4992032;28;20037;-73
2021/10/15 04:15:56;;;;;;;0.30;0.10;;;;;;;;;;4975879;28;20116;-73
2021/10/15 04:18:41;;;;;;;0.40;0.13;;;;;;;;;;4975897;28;20033;-75
2021/10/15 04:21:17;;;;;;;0.50;0.20;;;;;;;;;;4978030;28;20054;-73
2021/10/15 04:24:00;;;;;;;0.30;0.13;;;;;;;;;;4992214;28;20035;-74
2021/10/15 04:26:39;;;;;;;0.73;0.20;;;;;;;;;;4992098;28;20027;-72
2021/10/15 04:29:14;;;;;;;1.17;0.05;;;;;;;;;;4994405;28;20026;-75
2021/10/15 04:31:40;;;;;;;0.10;0.00;;;;;;;;;;4995675;28;20049;-76
2021/10/15 04:34:14;;;;;;;1.00;0.10;;;;;;;;;;4979536;28;20041;-74
2021/10/15 04:36:41;;;;;;;0.40;0.20;;;;;;;;;;4979270;28;20026;-73
2021/10/15 04:39:07;;;;;;;0.10;0.10;;;;;;;;;;4979320;28;20065;-75
2021/10/15 04:41:34;;;;;;;0.30;0.20;;;;;;;;;;4979086;28;20022;-74
2021/10/15 04:44:10;;;;;;;0.50;0.05;;;;;;;;;;4979153;28;20037;-73
2021/10/15 04:46:36;;;;;;;0.85;0.30;;;;;;;;;;4995346;28;20022;-75
2021/10/15 04:49:12;;;;;;;0.32;0.10;;;;;;;;;;4979035;28;20523;-75
2021/10/15 04:51:38;;;;;;;0.00;0.00;;;;;;;;;;4996017;28;20113;-73
2021/10/15 04:54:12;;;;;;;1.00;0.10;;;;;;;;;;4997260;28;20062;-75
2021/10/15 04:56:38;;;;;;;0.32;0.10;;;;;;;;;;4996000;28;20029;-74
2021/10/15 04:59:03;;;;;;;0.03;0.00;;;;;;;;;;4997193;28;20030;-72
2021/10/15 05:01:28;;;;;;;0.45;0.10;;;;;;;;;;5012388;28;20570;-74
2021/10/15 05:04:03;;;;;;;0.07;0.07;;;;;;;;;;5036399;28;20376;-73
2021/10/15 05:06:29;;;;;;;1.52;0.10;;;;;;;;;;5035045;28;20610;-71
2021/10/15 05:11:43;;;;;;;0.22;0.10;;;;;;;;;;5036479;28;20215;-73
2021/10/15 05:14:09;;;;;;;0.05;0.00;;;;;;;;;;5036282;28;20014;-75
2021/10/15 05:16:36;;;;;;;0.30;0.10;;;;;;;;;;5034998;28;20024;-75
2021/10/15 05:19:08;;;;;;;0.30;0.10;;;;;;;;;;5035178;28;20104;-72
2021/10/15 05:21:49;;;;;;;0.00;0.00;;;;;;;;;;5036058;28;20033;-74
2021/10/15 05:24:16;;;;;;;0.35;0.10;;;;;;;;;;5034811;28;20445;-75
2021/10/15 05:26:48;;;;;;;0.00;0.00;;;;;;;;;;5035955;28;20040;-72
2021/10/15 05:29:15;;;;;;;1.08;0.20;;;;;;;;;;5035884;28;20622;-75
2021/10/15 05:31:47;;;;;;;1.30;0.17;;;;;;;;;;5034689;28;20022;-74
2021/10/15 05:34:12;;;;;;;0.20;0.10;;;;;;;;;;5034582;28;20024;-71
2021/10/15 05:36:38;;;;;;;0.00;0.00;;;;;;;;;;5035679;28;20021;-73
2021/10/15 05:39:09;;;;;;;0.08;0.08;;;;;;;;;;5034651;28;20025;-73
2021/10/15 05:41:36;;;;;;;0.43;0.05;;;;;;;;;;5034025;28;20029;-71
2021/10/15 05:44:11;;;;;;;0.00;0.00;;;;;;;;;;5035734;28;20378;-72
2021/10/15 05:46:52;;;;;;;0.10;0.10;;;;;;;;;;5034244;28;20456;-73
2021/10/15 05:49:38;;;;;;;0.73;0.10;;;;;;;;;;5034213;28;20112;-73
2021/10/15 05:52:08;;;;;;;0.25;0.10;;;;;;;;;;5036034;28;20067;-75
2021/10/15 06:00:36;;;;;;;0.35;0.10;;;;;;;;;;5035600;28;20481;-71
2021/10/15 06:03:01;;;;;;;0.10;0.10;;;;;;;;;;5031886;28;20408;-74
2021/10/15 06:06:12;;;;;;;0.30;0.10;;;;;;;;;;5035212;28;20025;-73
2021/10/15 06:16:33;;;;;;;0.10;0.10;;;;;;;;;;5035339;28;20029;-72
2021/10/15 06:19:08;;;;;;;0.47;0.10;;;;;;;;;;5033678;28;20121;-73
2021/10/15 06:21:43;;;;;;;0.00;0.00;;;;;;;;;;5034974;28;20064;-73
2021/10/15 06:24:09;;;;;;;0.00;0.00;;;;;;;;;;5033927;28;20021;-73
2021/10/15 06:26:53;;;;;;;0.90;0.30;;;;;;;;;;5033638;28;20028;-74
2021/10/15 06:29:33;;;;;;;;;;;;;;;;;;5033833;28;20457;-73
2021/10/15 06:31:58;;;;;;;0.43;0.10;;;;;;;;;;5034967;28;19912;-75
2021/10/15 06:34:25;;;;;;;0.20;0.05;;;;;;;;;;5034640;28;20017;-74
2021/10/15 06:36:52;;;;;;;0.68;0.10;;;;;;;;;;5035096;28;20445;-72
2021/10/15 06:39:30;;;;;;;0.47;0.20;;;;;;;;;;5033363;28;20030;-74
2021/10/15 06:41:55;;;;;;;0.47;0.10;;;;;;;;;;5034363;28;20029;-73
2021/10/15 06:44:22;;;;;;;0.28;0.25;;;;;;;;;;5034366;28;20025;-72
2021/10/15 06:46:50;;;;;;;0.10;0.00;;;;;;;;;;5034398;28;20104;-73
2021/10/15 06:49:21;;;;;;;0.43;0.00;;;;;;;;;;5034289;28;20025;-73
2021/10/15 06:51:48;;;;;;;0.00;0.00;;;;;;;;;;5032429;28;20116;-72
2021/10/15 06:54:20;;;;;;;0.40;0.08;;;;;;;;;;5034341;28;20025;-72
2021/10/15 06:56:46;;;;;;;0.00;0.00;;;;;;;;;;5034278;28;20475;-74
2021/10/15 06:59:11;;;;;;;0.05;0.00;;;;;;;;;;5034267;28;20037;-73
2021/10/15 07:01:36;;;;;;;0.00;0.00;;;;;;;;;;5033957;28;20045;-72
2021/10/15 07:04:36;;;;;;;0.20;0.10;;;;;;;;;;5033992;28;20035;-75
2021/10/15 07:07:11;;;;;;;0.20;0.10;;;;;;;;;;4973338;28;20261;-73
2021/10/15 07:09:37;;;;;;;0.10;0.10;;;;;;;;;;4973017;28;20429;-72
2021/10/15 07:12:04;;;;;;;1.33;0.10;;;;;;;;;;4973531;28;20482;-73
2021/10/15 07:14:31;;;;;;;0.55;0.10;;;;;;;;;;4973434;28;20056;-71
2021/10/15 07:17:06;;;;;;;0.10;0.00;;;;;;;;;;4971953;28;20475;-71
2021/10/15 07:19:32;;;;;;;1.67;0.25;;;;;;;;;;4957003;28;20034;-74
2021/10/15 07:22:08;;;;;;;1.75;0.20;;;;;;;;;;4973272;28;20038;-73
2021/10/15 07:24:44;;;;;;;0.10;0.10;;;;;;;;;;4968991;28;20038;-74
2021/10/15 07:27:28;;;;;;;0.00;0.00;;;;;;;;;;4958633;28;20597;-74
2021/10/15 07:30:04;;;;;;;0.10;0.10;;;;;;;;;;4972949;28;20133;-71
2021/10/15 07:32:32;;;;;;;0.70;0.00;;;;;;;;;;4973029;28;20023;-73
2021/10/15 07:35:06;;;;;;;0.30;0.10;;;;;;;;;;4956937;28;20057;-72
2021/10/15 07:37:31;;;;;;;0.30;0.10;;;;;;;;;;4972576;28;20423;-70
2021/10/15 07:39:58;;;;;;;0.00;0.00;;;;;;;;;;4972789;28;20023;-72
2021/10/15 07:42:29;;;;;;;0.45;0.10;;;;;;;;;;5001555;28;20163;-72
2021/10/15 07:44:55;;;;;;;0.47;0.15;;;;;;;;;;5053274;28;20044;-71
2021/10/15 07:47:21;;;;;;;0.38;0.00;;;;;;;;;;5029962;28;20462;-74
2021/10/15 07:49:49;;;;;;;0.93;0.10;;;;;;;;;;5022915;28;20457;-73
2021/10/15 07:52:14;;;;;;;0.50;0.13;;;;;;;;;;5032018;28;20025;-71
2021/10/15 07:54:40;;;;;;;0.80;0.32;;;;;;;;;;5033333;28;20066;-73
2021/10/15 07:57:16;;;;;;;0.38;0.15;;;;;;;;;;5033385;28;20104;-73
2021/10/15 07:59:43;;;;;;;0.68;0.10;;;;;;;;;;5033450;28;20025;-72
2021/10/15 08:02:09;;;;;;;0.10;0.00;;;;;;;;;;5033107;28;20484;-71
2021/10/15 08:04:35;;;;;;;0.10;0.10;;;;;;;;;;5035468;28;20017;-73
2021/10/15 08:07:09;;;;;;;0.45;0.10;;;;;;;;;;5037224;28;20026;-73
2021/10/15 08:09:34;;;;;;;0.55;0.15;;;;;;;;;;5035724;28;20047;-71
2021/10/15 08:12:00;;;;;;;0.20;0.10;;;;;;;;;;5037191;28;20036;-73
2021/10/15 08:14:26;;;;;;;0.38;0.22;;;;;;;;;;5035787;28;20013;-72
2021/10/15 08:16:54;;;;;;;1.05;0.10;;;;;;;;;;5037182;28;20059;-71
2021/10/15 08:19:20;;;;;;;0.35;0.10;;;;;;;;;;5037150;28;20057;-72
2021/10/15 08:21:47;;;;;;;0.22;0.10;;;;;;;;;;5035883;28;20472;-72
2021/10/15 08:24:14;;;;;;;0.30;0.20;;;;;;;;;;5035685;28;20377;-71
2021/10/15 08:26:41;;;;;;;0.00;0.00;;;;;;;;;;5036896;28;20018;-72
2021/10/15 08:29:07;;;;;;;0.30;0.15;;;;;;;;;;5036971;28;20028;-73
2021/10/15 08:31:32;;;;;;;0.40;0.15;;;;;;;;;;5036989;28;20017;-71
2021/10/15 08:33:59;;;;;;;0.13;0.10;;;;;;;;;;5037269;28;20025;-72
2021/10/15 08:36:38;;;;;;;0.00;0.00;;;;;;;;;;5036985;28;20089;-72
2021/10/15 08:39:05;;;;;;;1.45;0.10;;;;;;;;;;5036801;28;20018;-71
2021/10/15 08:41:42;;;;;;;0.10;0.00;;;;;;;;;;5033864;28;20477;-71
2021/10/15 08:44:09;;;;;;;0.90;0.00;;;;;;;;;;5035316;28;20457;-72
2021/10/15 08:46:35;;;;;;;0.47;0.10;;;;;;;;;;5035741;28;20039;-71
2021/10/15 08:49:02;;;;;;;0.77;0.17;;;;;;;;;;5035572;28;20031;-71
2021/10/15 08:51:28;;;;;;;0.30;0.10;;;;;;;;;;5035615;28;20468;-71
2021/10/15 08:53:59;;;;;;;0.08;0.08;;;;;;;;;;5035771;28;20108;-71
2021/10/15 08:56:30;;;;;;;0.35;0.22;;;;;;;;;;5034083;28;20472;-69
2021/10/15 08:58:59;;;;;;;0.52;0.17;;;;;;;;;;5034453;28;20053;-70
2021/10/15 09:01:29;;;;;;;0.10;0.00;;;;;;;;;;5033896;28;20395;-71
2021/10/15 09:04:05;;;;;;;0.22;0.10;;;;;;;;;;5034874;28;20413;-70
2021/10/15 09:06:40;;;;;;;1.27;0.13;;;;;;;;;;5038312;28;20029;-70
2021/10/15 09:09:06;;;;;;;0.17;0.00;;;;;;;;;;5044096;28;20444;-70
2021/10/15 09:11:34;;;;;;;0.20;0.10;;;;;;;;;;5034972;28;20027;-69
2021/10/15 09:14:09;;;;;;;3.10;0.22;;;;;;;;;;5035555;28;20067;-71
2021/10/15 09:16:54;;;;;;;0.30;0.10;;;;;;;;;;5034209;28;20025;-72
2021/10/15 09:19:24;;;;;;;0.20;0.00;;;;;;;;;;5035721;28;20017;-70
2021/10/15 09:22:07;;;;;;;0.63;0.22;;;;;;;;;;5035809;28;20025;-71
2021/10/15 09:24:36;;;;;;;0.10;0.00;;;;;;;;;;5035326;28;20116;-69
2021/10/15 09:27:21;;;;;;;0.52;0.10;;;;;;;;;;5034428;28;20443;-71
2021/10/15 09:29:48;;;;;;;0.47;0.17;;;;;;;;;;5034292;28;20021;-70
2021/10/15 09:32:16;;;;;;;0.35;0.20;;;;;;;;;;5037741;28;20021;-68
2021/10/15 09:34:42;;;;;;;0.45;0.00;;;;;;;;;;5036053;28;20346;-70
2021/10/15 09:37:12;;;;;;;0.10;0.05;;;;;;;;;;5035663;28;20020;-70
2021/10/15 09:39:49;;;;;;;0.10;0.03;;;;;;;;;;5035426;28;20025;-71
2021/10/15 09:42:22;;;;;;;0.47;0.20;;;;;;;;;;5034376;28;20036;-70
2021/10/15 09:44:49;;;;;;;0.28;0.10;;;;;;;;;;5035378;28;20025;-70
2021/10/15 09:47:15;;;;;;;1.92;0.03;;;;;;;;;;5035499;28;20060;-72
2021/10/15 09:49:50;;;;;;;0.70;0.10;;;;;;;;;;5035391;28;20026;-72
2021/10/15 09:52:23;;;;;;;0.17;0.10;;;;;;;;;;5034107;28;20017;-70
2021/10/15 09:55:08;;;;;;;0.30;0.10;;;;;;;;;;5035315;28;20084;-72
2021/10/15 09:57:37;;;;;;;0.10;0.10;;;;;;;;;;5014198;28;20253;-72
2021/10/15 10:00:04;;;;;;;0.30;0.10;;;;;;;;;;5015619;28;20017;-70
2021/10/15 10:02:29;;;;;;;0.60;0.10;;;;;;;;;;5015547;28;20124;-72
2021/10/15 10:05:06;;;;;;;0.20;0.20;;;;;;;;;;5015530;28;20121;-73
2021/10/15 10:07:36;;;;;;;0.52;0.10;;;;;;;;;;5014211;28;20247;-73
2021/10/15 10:10:04;;;;;;;0.60;0.20;;;;;;;;;;5029211;28;20005;-73
2021/10/15 10:12:45;;;;;;;0.40;0.20;;;;;;;;;;5034729;28;20349;-73
2021/10/15 10:15:15;;;;;;;0.32;0.10;;;;;;;;;;5034911;28;20045;-75
2021/10/15 10:17:55;;;;;;;0.10;0.10;;;;;;;;;;5034852;28;20369;-74
2021/10/15 10:20:29;;;;;;;0.95;0.10;;;;;;;;;;5034843;28;20022;-73
2021/10/15 10:23:06;;;;;;;0.30;0.10;;;;;;;;;;5034764;28;20469;-73
2021/10/15 10:25:31;;;;;;;0.00;0.00;;;;;;;;;;5034636;28;20025;-72
2021/10/15 10:28:10;;;;;;;0.45;0.10;;;;;;;;;;5034557;28;20350;-72
2021/10/15 10:31:05;;;;;;;0.10;0.10;;;;;;;;;;5035007;28;20571;-74
2021/10/15 10:33:53;;;;;;;0.35;0.10;;;;;;;;;;4958043;28;20034;-73
2021/10/15 10:36:19;;;;;;;0.40;0.30;;;;;;;;;;4966193;28;20608;-74
2021/10/15 10:38:54;;;;;;;0.30;0.10;;;;;;;;;;4974003;28;20074;-73
2021/10/15 10:41:34;;;;;;;0.30;0.10;;;;;;;;;;4957690;28;20474;-75
2021/10/15 10:44:02;;;;;;;0.10;0.00;;;;;;;;;;4973724;28;20466;-73
2021/10/15 10:46:29;;;;;;;0.38;0.15;;;;;;;;;;4973720;28;20028;-72
2021/10/15 10:49:14;;;;;;;0.30;0.10;;;;;;;;;;4974300;28;20038;-73
2021/10/15 10:51:41;;;;;;;1.95;0.13;;;;;;;;;;4973607;28;20023;-74
2021/10/15 10:54:19;;;;;;;1.02;0.20;;;;;;;;;;4957414;28;20501;-73
2021/10/15 10:56:50;;;;;;;0.20;0.10;;;;;;;;;;4973505;28;20039;-73
2021/10/15 10:59:23;;;;;;;0.32;0.00;;;;;;;;;;4973527;28;20061;-73
2021/10/15 11:01:49;;;;;;;0.38;0.10;;;;;;;;;;4954181;28;20074;-73
2021/10/15 11:04:25;;;;;;;1.65;0.13;;;;;;;;;;4973452;28;20082;-73
2021/10/15 11:07:20;;;;;;;0.03;0.00;;;;;;;;;;4973761;28;20022;-76
2021/10/15 11:09:52;;;;;;;1.45;0.10;;;;;;;;;;4932914;29;20066;-72
2021/10/15 11:12:37;;;;;;;0.30;0.10;;;;;;;;;;4953608;28;20054;-70
2021/10/15 11:15:15;;;;;;;1.35;0.30;;;;;;;;;;4954093;29;20035;-73
2021/10/15 11:17:48;;;;;;;0.30;0.20;;;;;;;;;;4937904;29;20023;-73
2021/10/15 11:20:20;;;;;;;0.10;0.00;;;;;;;;;;4953904;29;20042;-71
2021/10/15 11:22:58;;;;;;;0.45;0.10;;;;;;;;;;4953816;29;20034;-73
2021/10/15 11:25:25;;;;;;;0.17;0.10;;;;;;;;;;4937901;29;20558;-73
2021/10/15 11:27:53;;;;;;;0.00;0.00;;;;;;;;;;4953899;29;20142;-72
2021/10/15 11:30:18;;;;;;;0.30;0.10;;;;;;;;;;4937813;29;20023;-74
2021/10/15 11:33:19;;;;;;;0.20;0.10;;;;;;;;;;4937717;29;20126;-74
2021/10/15 11:35:45;;;;;;;0.10;0.03;;;;;;;;;;4915605;29;20028;-72
2021/10/15 11:38:18;;;;;;;0.10;0.10;;;;;;;;;;4916954;29;20413;-73
2021/10/15 11:40:46;;;;;;;0.27;0.10;;;;;;;;;;4919676;29;20044;-73
2021/10/15 11:43:22;;;;;;;0.73;0.10;;;;;;;;;;4919577;29;20066;-72
2021/10/15 11:45:50;;;;;;;0.70;0.10;;;;;;;;;;4940045;28;20122;-73
2021/10/15 11:48:20;;;;;;;0.20;0.08;;;;;;;;;;4976971;28;20113;-75
2021/10/15 11:50:50;;;;;;;0.00;0.00;;;;;;;;;;4976923;28;20117;-74
2021/10/15 11:53:20;;;;;;;0.35;0.20;;;;;;;;;;4960618;28;20126;-73
2021/10/15 11:55:47;;;;;;;0.55;0.10;;;;;;;;;;4976733;28;20108;-74
2021/10/15 11:58:25;;;;;;;0.10;0.00;;;;;;;;;;4977073;28;20046;-72
2021/10/15 12:01:10;;;;;;;0.00;0.00;;;;;;;;;;4960593;28;20382;-73
2021/10/15 12:03:35;;;;;;;0.05;0.00;;;;;;;;;;4957397;29;20487;-75
2021/10/15 12:06:19;;;;;;;0.40;0.00;;;;;;;;;;4957437;29;20154;-74
2021/10/15 12:08:45;;;;;;;;;;;;;;;;;;4945709;28;20328;-73
2021/10/15 12:11:37;;;;;;;0.05;0.00;;;;;;;;;;4997844;28;19957;-75
2021/10/15 12:14:05;;;;;;;0.30;0.10;;;;;;;;;;4998185;28;20045;-73
2021/10/15 12:17:01;;;;;;;1.67;0.32;;;;;;;;;;4998014;28;20018;-74
2021/10/15 12:19:27;;;;;;;0.10;0.10;;;;;;;;;;4995715;28;20038;-74
2021/10/15 12:22:02;;;;;;;0.40;0.10;;;;;;;;;;4995839;28;20077;-73
2021/10/15 12:24:41;;;;;;;0.20;0.20;;;;;;;;;;4995639;28;20041;-73
2021/10/15 12:27:10;;;;;;;0.03;0.00;;;;;;;;;;4979433;28;20022;-73
2021/10/15 12:29:41;;;;;;;0.35;0.10;;;;;;;;;;4995606;28;20030;-73
2021/10/15 12:32:39;;;;;;;0.30;0.00;;;;;;;;;;4995761;28;20428;-75
2021/10/15 12:35:10;;;;;;;0.25;0.10;;;;;;;;;;4899910;29;20037;-74
2021/10/15 12:37:58;;;;;;;0.50;0.10;;;;;;;;;;4899681;29;20041;-74
2021/10/15 12:40:34;;;;;;;0.15;0.08;;;;;;;;;;4899837;29;20021;-73
2021/10/15 12:43:09;;;;;;;0.47;0.20;;;;;;;;;;4899796;29;20037;-71
2021/10/15 12:45:35;;;;;;;0.60;0.13;;;;;;;;;;4899634;29;20044;-74
2021/10/15 12:48:20;;;;;;;0.20;0.00;;;;;;;;;;4899528;29;20028;-74
2021/10/15 12:50:47;;;;;;;;;;;;;;;;;;4898459;29;20032;-72
2021/10/15 12:53:17;;;;;;;0.45;0.10;;;;;;;;;;4899538;29;19907;-72
2021/10/15 12:56:00;;;;;;;1.02;0.20;;;;;;;;;;4908136;29;20036;-73
2021/10/15 12:58:28;;;;;;;0.55;0.10;;;;;;;;;;4918249;29;20475;-75
2021/10/15 13:01:02;;;;;;;0.25;0.05;;;;;;;;;;4918109;29;20032;-74
2021/10/15 13:03:28;;;;;;;0.50;0.10;;;;;;;;;;4954143;29;20054;-73
2021/10/15 13:05:56;;;;;;;0.20;0.00;;;;;;;;;;4939966;29;20114;-75
2021/10/15 13:08:22;;;;;;;0.28;0.10;;;;;;;;;;4956166;29;20123;-74
2021/10/15 13:11:05;;;;;;;0.40;0.10;;;;;;;;;;5000905;28;20029;-73
2021/10/15 13:13:38;;;;;;;0.47;0.10;;;;;;;;;;5036331;28;20457;-74
2021/10/15 13:16:04;;;;;;;0.95;0.00;;;;;;;;;;5035021;28;20022;-73
2021/10/15 13:18:30;;;;;;;0.20;0.13;;;;;;;;;;5036103;28;20582;-72
2021/10/15 13:21:05;;;;;;;0.40;0.13;;;;;;;;;;5035937;28;20473;-72
2021/10/15 13:23:44;;;;;;;0.75;0.20;;;;;;;;;;5016261;28;20018;-74
2021/10/15 13:26:09;;;;;;;0.17;0.00;;;;;;;;;;5042761;28;20116;-73
2021/10/15 13:28:35;;;;;;;0.75;0.20;;;;;;;;;;5055582;28;20403;-69
2021/10/15 13:31:09;;;;;;;0.00;0.00;;;;;;;;;;5054471;28;20104;-74
2021/10/15 13:36:37;;;;;;;19.13;11.75;;;;;;;;;;4994359;28;19913;-70
2021/10/15 13:39:06;;;;;;;15.60;8.10;;;;;;;;;;5003538;28;20038;-69
2021/10/15 13:42:18;;;;;;;8.73;6.05;;;;;;;;;;4991391;28;20513;-70
2021/10/15 13:47:12;;;;;;;5.03;3.70;;;;;;;;;;5013266;28;20040;-67
2021/10/15 13:49:48;;;;;;;6.32;2.42;;;;;;;;;;5010299;28;20080;-70
2021/10/15 13:52:17;;;;;;;3.60;2.22;;;;;;;;;;5013630;28;20421;-66
2021/10/15 13:54:44;;;;;;;2.95;1.90;;;;;;;;;;5011471;28;20045;-65
2021/10/15 13:57:12;;;;;;;1.98;1.30;;;;;;;;;;4993677;28;20490;-67
2021/10/15 14:02:31;;;;;;;0.85;0.75;;;;;;;;;;4934712;29;20188;-66
2021/10/15 14:04:58;;;;;;;0.90;0.75;;;;;;;;;;4935430;29;20035;-67
2021/10/15 14:07:24;;;;;;;0.68;0.60;;;;;;;;;;4935594;29;20032;-68
2021/10/15 14:09:50;;;;;;;2.85;0.57;;;;;;;;;;4919661;29;20071;-67
2021/10/15 14:12:15;;;;;;;1.33;0.50;;;;;;;;;;4946474;29;20031;-66
2021/10/15 14:14:42;;;;;;;0.77;0.50;;;;;;;;;;4954517;29;20055;-66
2021/10/15 14:17:08;;;;;;;0.55;0.30;;;;;;;;;;4969906;28;20065;-68
2021/10/15 14:19:36;;;;;;;0.50;0.32;;;;;;;;;;4973990;28;20397;-67
2021/10/15 14:22:03;;;;;;;0.38;0.32;;;;;;;;;;4974010;28;20026;-66
2021/10/15 14:24:29;;;;;;;0.35;0.20;;;;;;;;;;4964501;28;20031;-66
2021/10/15 14:26:55;;;;;;;1.23;0.50;;;;;;;;;;4954761;29;20556;-67
2021/10/15 14:29:22;;;;;;;0.30;0.30;;;;;;;;;;4954281;29;20530;-67
2021/10/15 14:31:48;;;;;;;0.20;0.20;;;;;;;;;;4954203;29;20430;-66
2021/10/15 14:34:15;;;;;;;1.00;0.20;;;;;;;;;;4954485;29;20102;-67
2021/10/15 14:36:40;;;;;;;0.57;0.20;;;;;;;;;;4954400;29;20051;-67
2021/10/15 14:39:07;;;;;;;0.32;0.20;;;;;;;;;;4980379;28;20065;-67
2021/10/15 14:41:35;;;;;;;1.48;0.20;;;;;;;;;;5014659;28;20380;-66
2021/10/15 14:44:02;;;;;;;0.50;0.20;;;;;;;;;;5014745;28;20033;-66
2021/10/15 14:46:34;;;;;;;0.40;0.17;;;;;;;;;;5013478;28;20022;-68
2021/10/15 14:48:59;;;;;;;0.40;0.30;;;;;;;;;;5014466;28;20049;-66
2021/10/15 14:51:25;;;;;;;1.17;0.25;;;;;;;;;;5014494;28;20050;-66
2021/10/15 14:53:51;;;;;;;0.65;0.10;;;;;;;;;;5013179;28;20064;-66
2021/10/15 14:56:18;;;;;;;0.40;0.40;;;;;;;;;;5014443;28;20022;-68
2021/10/15 14:58:45;;;;;;;0.30;0.20;;;;;;;;;;5014265;28;20040;-67
2021/10/15 15:01:10;;;;;;;0.95;0.20;;;;;;;;;;5014399;28;20034;-67
2021/10/15 15:03:36;;;;;;;0.45;0.10;;;;;;;;;;5014152;28;20047;-66
2021/10/15 15:06:03;;;;;;;0.47;0.47;;;;;;;;;;5012997;28;20022;-67
2021/10/15 15:08:29;;;;;;;0.32;0.22;;;;;;;;;;5014152;28;20018;-67
2021/10/15 15:10:56;;;;;;;0.30;0.30;;;;;;;;;;5014418;28;20049;-66
2021/10/15 15:13:21;;;;;;;1.75;0.20;;;;;;;;;;5020188;28;20021;-68
2021/10/15 15:15:48;;;;;;;0.38;0.20;;;;;;;;;;5033989;28;20468;-67
2021/10/15 15:18:14;;;;;;;1.08;0.30;;;;;;;;;;5033499;28;20027;-66
2021/10/15 15:20:40;;;;;;;0.30;0.30;;;;;;;;;;5033836;28;20045;-68
2021/10/15 15:23:06;;;;;;;1.63;0.13;;;;;;;;;;5033894;28;20059;-67
2021/10/15 15:25:31;;;;;;;0.43;0.20;;;;;;;;;;5033819;28;20025;-67
2021/10/15 15:27:56;;;;;;;1.00;0.13;;;;;;;;;;5033861;28;20021;-66
2021/10/15 15:30:22;;;;;;;0.30;0.10;;;;;;;;;;5034009;28;20030;-67
2021/10/15 15:32:48;;;;;;;0.10;0.08;;;;;;;;;;5032719;28;20453;-67